sensor_id;sensor_type;location;lat;lon;timestamp;P1;durP1;ratioP1;P2;durP2;ratioP2
45065;SDS011;30830;53.704;10.004;2023-12-29T00:01:54;7.28;;;1.88;;
45065;SDS011;30830;53.704;10.004;2023-12-29T00:04:19;5.97;;;1.73;;
45065;SDS011;30830;53.704;10.004;2023-12-29T00:06:45;5.18;;;1.80;;
45065;SDS011;30830;53.704;10.004;2023-12-29T00:09:11;7.22;;;1.88;;
45065;SDS011;30830;53.704;10.004;2023-12-29T00:11:37;4.80;;;1.40;;
45065;SDS011;30830;53.704;10.004;2023-12-29T00:14:03;4.82;;;1.67;;
45065;SDS011;30830;53.704;10.004;2023-12-29T00:16:29;6.15;;;1.27;;
45065;SDS011;30830;53.704;10.004;2023-12-29T00:18:57;7.05;;;1.90;;
45065;SDS011;30830;53.704;10.004;2023-12-29T00:21:23;5.35;;;1.90;;
45065;SDS011;30830;53.704;10.004;2023-12-29T00:23:49;7.38;;;1.83;;
45065;SDS011;30830;53.704;10.004;2023-12-29T00:26:18;4.85;;;1.42;;
45065;SDS011;30830;53.704;10.004;2023-12-29T00:28:56;3.58;;;1.38;;
45065;SDS011;30830;53.704;10.004;2023-12-29T00:31:21;5.85;;;2.08;;
45065;SDS011;30830;53.704;10.004;2023-12-29T00:33:47;6.25;;;2.20;;
45065;SDS011;30830;53.704;10.004;2023-12-29T00:36:28;10.20;;;2.05;;
45065;SDS011;30830;53.704;10.004;2023-12-29T00:38:54;8.15;;;1.60;;
45065;SDS011;30830;53.704;10.004;2023-12-29T00:41:19;7.78;;;1.98;;
45065;SDS011;30830;53.704;10.004;2023-12-29T00:43:45;6.95;;;2.10;;
45065;SDS011;30830;53.704;10.004;2023-12-29T00:46:10;7.30;;;2.20;;
45065;SDS011;30830;53.704;10.004;2023-12-29T00:48:39;12.32;;;2.67;;
45065;SDS011;30830;53.704;10.004;2023-12-29T00:51:05;8.07;;;2.15;;
45065;SDS011;30830;53.704;10.004;2023-12-29T00:53:31;4.65;;;2.17;;
45065;SDS011;30830;53.704;10.004;2023-12-29T00:55:57;3.08;;;1.98;;
45065;SDS011;30830;53.704;10.004;2023-12-29T00:58:23;7.28;;;2.08;;
45065;SDS011;30830;53.704;10.004;2023-12-29T01:00:48;7.90;;;2.53;;
45065;SDS011;30830;53.704;10.004;2023-12-29T01:03:17;3.97;;;1.80;;
45065;SDS011;30830;53.704;10.004;2023-12-29T01:05:49;6.63;;;1.85;;
45065;SDS011;30830;53.704;10.004;2023-12-29T01:08:14;10.68;;;2.83;;
45065;SDS011;30830;53.704;10.004;2023-12-29T01:10:40;7.05;;;1.65;;
45065;SDS011;30830;53.704;10.004;2023-12-29T01:13:09;7.47;;;1.98;;
45065;SDS011;30830;53.704;10.004;2023-12-29T01:15:35;4.35;;;2.22;;
45065;SDS011;30830;53.704;10.004;2023-12-29T01:18:00;5.97;;;1.92;;
45065;SDS011;30830;53.704;10.004;2023-12-29T01:20:26;7.70;;;1.85;;
45065;SDS011;30830;53.704;10.004;2023-12-29T01:22:51;3.30;;;1.60;;
45065;SDS011;30830;53.704;10.004;2023-12-29T01:25:17;2.55;;;1.45;;
45065;SDS011;30830;53.704;10.004;2023-12-29T01:27:42;9.18;;;2.58;;
45065;SDS011;30830;53.704;10.004;2023-12-29T01:30:08;6.60;;;2.47;;
45065;SDS011;30830;53.704;10.004;2023-12-29T01:32:34;3.97;;;1.90;;
45065;SDS011;30830;53.704;10.004;2023-12-29T01:35:01;6.30;;;2.30;;
45065;SDS011;30830;53.704;10.004;2023-12-29T01:37:26;7.63;;;2.20;;
45065;SDS011;30830;53.704;10.004;2023-12-29T01:39:52;7.35;;;2.10;;
45065;SDS011;30830;53.704;10.004;2023-12-29T01:42:27;8.02;;;2.10;;
45065;SDS011;30830;53.704;10.004;2023-12-29T01:44:52;4.32;;;1.98;;
45065;SDS011;30830;53.704;10.004;2023-12-29T01:47:19;4.18;;;2.22;;
45065;SDS011;30830;53.704;10.004;2023-12-29T01:49:49;6.65;;;1.98;;
45065;SDS011;30830;53.704;10.004;2023-12-29T01:52:16;3.65;;;1.80;;
45065;SDS011;30830;53.704;10.004;2023-12-29T01:54:42;4.63;;;2.47;;
45065;SDS011;30830;53.704;10.004;2023-12-29T01:57:10;4.47;;;1.88;;
45065;SDS011;30830;53.704;10.004;2023-12-29T01:59:36;7.35;;;2.22;;
45065;SDS011;30830;53.704;10.004;2023-12-29T02:02:03;5.10;;;1.95;;
45065;SDS011;30830;53.704;10.004;2023-12-29T02:04:29;4.93;;;1.98;;
45065;SDS011;30830;53.704;10.004;2023-12-29T02:06:56;4.75;;;1.98;;
45065;SDS011;30830;53.704;10.004;2023-12-29T02:09:22;5.85;;;1.73;;
45065;SDS011;30830;53.704;10.004;2023-12-29T02:11:48;4.35;;;1.65;;
45065;SDS011;30830;53.704;10.004;2023-12-29T02:14:17;4.40;;;1.73;;
45065;SDS011;30830;53.704;10.004;2023-12-29T02:19:42;4.82;;;1.70;;
45065;SDS011;30830;53.704;10.004;2023-12-29T02:22:10;8.88;;;2.22;;
45065;SDS011;30830;53.704;10.004;2023-12-29T02:24:36;7.03;;;2.15;;
45065;SDS011;30830;53.704;10.004;2023-12-29T02:29:32;5.45;;;2.08;;
45065;SDS011;30830;53.704;10.004;2023-12-29T02:31:59;4.50;;;2.10;;
45065;SDS011;30830;53.704;10.004;2023-12-29T02:34:25;8.20;;;2.30;;
45065;SDS011;30830;53.704;10.004;2023-12-29T02:36:54;3.55;;;2.05;;
45065;SDS011;30830;53.704;10.004;2023-12-29T02:39:21;5.70;;;2.25;;
45065;SDS011;30830;53.704;10.004;2023-12-29T02:41:47;7.28;;;1.52;;
45065;SDS011;30830;53.704;10.004;2023-12-29T02:44:13;6.10;;;2.28;;
45065;SDS011;30830;53.704;10.004;2023-12-29T02:46:38;6.63;;;1.95;;
45065;SDS011;30830;53.704;10.004;2023-12-29T02:49:04;10.20;;;2.15;;
45065;SDS011;30830;53.704;10.004;2023-12-29T02:51:30;5.78;;;1.63;;
45065;SDS011;30830;53.704;10.004;2023-12-29T02:53:55;4.72;;;1.55;;
45065;SDS011;30830;53.704;10.004;2023-12-29T02:56:21;6.40;;;2.00;;
45065;SDS011;30830;53.704;10.004;2023-12-29T02:58:47;4.07;;;1.40;;
45065;SDS011;30830;53.704;10.004;2023-12-29T03:01:13;4.93;;;1.52;;
45065;SDS011;30830;53.704;10.004;2023-12-29T03:03:38;4.25;;;2.05;;
45065;SDS011;30830;53.704;10.004;2023-12-29T03:06:05;5.22;;;1.30;;
45065;SDS011;30830;53.704;10.004;2023-12-29T03:08:31;2.25;;;1.08;;
45065;SDS011;30830;53.704;10.004;2023-12-29T03:10:57;4.47;;;1.48;;
45065;SDS011;30830;53.704;10.004;2023-12-29T03:13:23;3.05;;;1.75;;
45065;SDS011;30830;53.704;10.004;2023-12-29T03:15:48;5.57;;;1.27;;
45065;SDS011;30830;53.704;10.004;2023-12-29T03:18:14;6.53;;;1.70;;
45065;SDS011;30830;53.704;10.004;2023-12-29T03:20:40;3.40;;;1.42;;
45065;SDS011;30830;53.704;10.004;2023-12-29T03:23:05;4.28;;;1.27;;
45065;SDS011;30830;53.704;10.004;2023-12-29T03:25:31;6.57;;;1.52;;
45065;SDS011;30830;53.704;10.004;2023-12-29T03:27:56;2.28;;;1.20;;
45065;SDS011;30830;53.704;10.004;2023-12-29T03:30:22;3.08;;;1.30;;
45065;SDS011;30830;53.704;10.004;2023-12-29T03:32:47;2.47;;;1.17;;
45065;SDS011;30830;53.704;10.004;2023-12-29T03:35:13;3.17;;;1.13;;
45065;SDS011;30830;53.704;10.004;2023-12-29T03:37:39;2.00;;;1.00;;
45065;SDS011;30830;53.704;10.004;2023-12-29T03:40:05;6.70;;;1.52;;
45065;SDS011;30830;53.704;10.004;2023-12-29T03:42:31;3.65;;;1.00;;
45065;SDS011;30830;53.704;10.004;2023-12-29T03:44:56;2.22;;;1.08;;
45065;SDS011;30830;53.704;10.004;2023-12-29T03:47:23;3.05;;;1.60;;
45065;SDS011;30830;53.704;10.004;2023-12-29T03:49:48;3.25;;;1.13;;
45065;SDS011;30830;53.704;10.004;2023-12-29T03:52:14;3.90;;;1.27;;
45065;SDS011;30830;53.704;10.004;2023-12-29T03:54:39;4.93;;;1.45;;
45065;SDS011;30830;53.704;10.004;2023-12-29T03:57:05;2.42;;;1.05;;
45065;SDS011;30830;53.704;10.004;2023-12-29T03:59:30;2.20;;;1.17;;
45065;SDS011;30830;53.704;10.004;2023-12-29T04:01:56;3.75;;;1.65;;
45065;SDS011;30830;53.704;10.004;2023-12-29T04:04:22;4.18;;;1.20;;
45065;SDS011;30830;53.704;10.004;2023-12-29T04:06:48;4.68;;;1.17;;
45065;SDS011;30830;53.704;10.004;2023-12-29T04:09:14;4.00;;;1.40;;
45065;SDS011;30830;53.704;10.004;2023-12-29T04:11:39;6.75;;;1.80;;
45065;SDS011;30830;53.704;10.004;2023-12-29T04:14:05;9.30;;;1.48;;
45065;SDS011;30830;53.704;10.004;2023-12-29T04:16:30;5.25;;;1.42;;
45065;SDS011;30830;53.704;10.004;2023-12-29T04:18:56;2.05;;;0.77;;
45065;SDS011;30830;53.704;10.004;2023-12-29T04:21:21;4.25;;;0.98;;
45065;SDS011;30830;53.704;10.004;2023-12-29T04:23:47;1.75;;;1.05;;
45065;SDS011;30830;53.704;10.004;2023-12-29T04:26:13;4.10;;;0.82;;
45065;SDS011;30830;53.704;10.004;2023-12-29T04:28:38;2.65;;;0.60;;
45065;SDS011;30830;53.704;10.004;2023-12-29T04:31:04;4.22;;;0.73;;
45065;SDS011;30830;53.704;10.004;2023-12-29T04:33:29;5.47;;;0.85;;
45065;SDS011;30830;53.704;10.004;2023-12-29T04:35:55;2.05;;;0.77;;
45065;SDS011;30830;53.704;10.004;2023-12-29T04:38:21;0.40;;;0.22;;
45065;SDS011;30830;53.704;10.004;2023-12-29T04:40:46;0.95;;;0.60;;
45065;SDS011;30830;53.704;10.004;2023-12-29T04:43:12;2.50;;;0.57;;
45065;SDS011;30830;53.704;10.004;2023-12-29T04:45:38;2.55;;;0.60;;
45065;SDS011;30830;53.704;10.004;2023-12-29T04:48:04;2.35;;;0.65;;
45065;SDS011;30830;53.704;10.004;2023-12-29T04:50:29;1.45;;;0.60;;
45065;SDS011;30830;53.704;10.004;2023-12-29T04:52:55;2.20;;;0.50;;
45065;SDS011;30830;53.704;10.004;2023-12-29T04:55:21;1.38;;;0.43;;
45065;SDS011;30830;53.704;10.004;2023-12-29T04:57:46;1.67;;;1.00;;
45065;SDS011;30830;53.704;10.004;2023-12-29T05:00:12;2.90;;;0.82;;
45065;SDS011;30830;53.704;10.004;2023-12-29T05:02:38;2.85;;;0.57;;
45065;SDS011;30830;53.704;10.004;2023-12-29T05:05:04;1.65;;;0.65;;
45065;SDS011;30830;53.704;10.004;2023-12-29T05:07:30;0.95;;;0.50;;
45065;SDS011;30830;53.704;10.004;2023-12-29T05:09:55;1.42;;;0.40;;
45065;SDS011;30830;53.704;10.004;2023-12-29T05:12:27;1.40;;;0.40;;
45065;SDS011;30830;53.704;10.004;2023-12-29T05:14:53;3.13;;;0.90;;
45065;SDS011;30830;53.704;10.004;2023-12-29T05:17:21;1.75;;;0.70;;
45065;SDS011;30830;53.704;10.004;2023-12-29T05:19:47;3.78;;;0.68;;
45065;SDS011;30830;53.704;10.004;2023-12-29T05:22:12;1.85;;;0.50;;
45065;SDS011;30830;53.704;10.004;2023-12-29T05:24:42;2.83;;;0.77;;
45065;SDS011;30830;53.704;10.004;2023-12-29T05:27:08;2.20;;;0.80;;
45065;SDS011;30830;53.704;10.004;2023-12-29T05:29:34;5.38;;;0.85;;
45065;SDS011;30830;53.704;10.004;2023-12-29T05:32:09;2.63;;;0.70;;
45065;SDS011;30830;53.704;10.004;2023-12-29T05:34:36;4.60;;;0.75;;
45065;SDS011;30830;53.704;10.004;2023-12-29T05:37:02;3.50;;;1.02;;
45065;SDS011;30830;53.704;10.004;2023-12-29T05:39:28;4.13;;;0.80;;
45065;SDS011;30830;53.704;10.004;2023-12-29T05:41:54;4.35;;;0.88;;
45065;SDS011;30830;53.704;10.004;2023-12-29T05:44:19;2.50;;;1.10;;
45065;SDS011;30830;53.704;10.004;2023-12-29T05:46:46;5.72;;;1.00;;
45065;SDS011;30830;53.704;10.004;2023-12-29T05:49:12;7.38;;;0.85;;
45065;SDS011;30830;53.704;10.004;2023-12-29T05:51:38;4.70;;;0.85;;
45065;SDS011;30830;53.704;10.004;2023-12-29T05:54:03;3.38;;;1.00;;
45065;SDS011;30830;53.704;10.004;2023-12-29T05:56:29;8.30;;;1.30;;
45065;SDS011;30830;53.704;10.004;2023-12-29T05:58:55;3.38;;;0.90;;
45065;SDS011;30830;53.704;10.004;2023-12-29T06:01:20;3.75;;;1.13;;
45065;SDS011;30830;53.704;10.004;2023-12-29T06:03:48;8.20;;;1.10;;
45065;SDS011;30830;53.704;10.004;2023-12-29T06:06:14;4.05;;;1.30;;
45065;SDS011;30830;53.704;10.004;2023-12-29T06:08:39;3.63;;;1.05;;
45065;SDS011;30830;53.704;10.004;2023-12-29T06:11:05;7.50;;;1.40;;
45065;SDS011;30830;53.704;10.004;2023-12-29T06:13:31;2.22;;;0.90;;
45065;SDS011;30830;53.704;10.004;2023-12-29T06:15:57;3.97;;;1.33;;
45065;SDS011;30830;53.704;10.004;2023-12-29T06:18:22;9.98;;;1.92;;
45065;SDS011;30830;53.704;10.004;2023-12-29T06:20:48;5.32;;;1.45;;
45065;SDS011;30830;53.704;10.004;2023-12-29T06:23:14;5.55;;;1.27;;
45065;SDS011;30830;53.704;10.004;2023-12-29T06:25:41;5.97;;;1.00;;
45065;SDS011;30830;53.704;10.004;2023-12-29T06:28:07;3.92;;;0.98;;
45065;SDS011;30830;53.704;10.004;2023-12-29T06:30:33;3.67;;;1.17;;
45065;SDS011;30830;53.704;10.004;2023-12-29T06:32:59;6.28;;;1.00;;
45065;SDS011;30830;53.704;10.004;2023-12-29T06:35:24;5.45;;;0.80;;
45065;SDS011;30830;53.704;10.004;2023-12-29T06:37:50;6.55;;;1.60;;
45065;SDS011;30830;53.704;10.004;2023-12-29T06:40:16;3.65;;;1.05;;
45065;SDS011;30830;53.704;10.004;2023-12-29T06:42:42;2.47;;;1.10;;
45065;SDS011;30830;53.704;10.004;2023-12-29T06:45:07;5.38;;;1.67;;
45065;SDS011;30830;53.704;10.004;2023-12-29T06:47:33;2.63;;;0.85;;
45065;SDS011;30830;53.704;10.004;2023-12-29T06:49:59;3.28;;;1.20;;
45065;SDS011;30830;53.704;10.004;2023-12-29T06:52:25;6.10;;;1.77;;
45065;SDS011;30830;53.704;10.004;2023-12-29T06:54:51;3.38;;;1.63;;
45065;SDS011;30830;53.704;10.004;2023-12-29T06:57:17;5.57;;;1.40;;
45065;SDS011;30830;53.704;10.004;2023-12-29T06:59:42;6.13;;;1.52;;
45065;SDS011;30830;53.704;10.004;2023-12-29T07:02:08;3.05;;;1.35;;
45065;SDS011;30830;53.704;10.004;2023-12-29T07:04:33;11.48;;;1.50;;
45065;SDS011;30830;53.704;10.004;2023-12-29T07:07:02;2.88;;;1.98;;
45065;SDS011;30830;53.704;10.004;2023-12-29T07:09:28;9.15;;;1.73;;
45065;SDS011;30830;53.704;10.004;2023-12-29T07:11:53;9.00;;;1.83;;
45065;SDS011;30830;53.704;10.004;2023-12-29T07:14:19;6.20;;;1.52;;
45065;SDS011;30830;53.704;10.004;2023-12-29T07:16:44;6.72;;;1.80;;
45065;SDS011;30830;53.704;10.004;2023-12-29T07:19:10;10.77;;;2.45;;
45065;SDS011;30830;53.704;10.004;2023-12-29T07:21:35;9.07;;;2.00;;
45065;SDS011;30830;53.704;10.004;2023-12-29T07:24:01;6.85;;;1.52;;
45065;SDS011;30830;53.704;10.004;2023-12-29T07:26:27;7.25;;;1.80;;
45065;SDS011;30830;53.704;10.004;2023-12-29T07:28:52;10.07;;;2.47;;
45065;SDS011;30830;53.704;10.004;2023-12-29T07:31:19;6.97;;;2.55;;
45065;SDS011;30830;53.704;10.004;2023-12-29T07:33:46;4.88;;;1.60;;
45065;SDS011;30830;53.704;10.004;2023-12-29T07:36:11;13.43;;;2.35;;
45065;SDS011;30830;53.704;10.004;2023-12-29T07:38:37;14.88;;;2.42;;
45065;SDS011;30830;53.704;10.004;2023-12-29T07:41:03;9.23;;;2.22;;
45065;SDS011;30830;53.704;10.004;2023-12-29T07:43:29;7.90;;;1.98;;
45065;SDS011;30830;53.704;10.004;2023-12-29T07:45:54;6.65;;;1.88;;
45065;SDS011;30830;53.704;10.004;2023-12-29T07:48:20;5.82;;;2.13;;
45065;SDS011;30830;53.704;10.004;2023-12-29T07:50:45;7.78;;;2.40;;
45065;SDS011;30830;53.704;10.004;2023-12-29T07:53:11;9.70;;;1.90;;
45065;SDS011;30830;53.704;10.004;2023-12-29T07:55:37;7.97;;;2.15;;
45065;SDS011;30830;53.704;10.004;2023-12-29T07:58:03;8.98;;;2.88;;
45065;SDS011;30830;53.704;10.004;2023-12-29T08:00:29;7.57;;;2.45;;
45065;SDS011;30830;53.704;10.004;2023-12-29T08:02:54;9.93;;;2.25;;
45065;SDS011;30830;53.704;10.004;2023-12-29T08:05:20;9.93;;;1.92;;
45065;SDS011;30830;53.704;10.004;2023-12-29T08:07:45;10.82;;;1.98;;
45065;SDS011;30830;53.704;10.004;2023-12-29T08:10:11;12.52;;;2.45;;
45065;SDS011;30830;53.704;10.004;2023-12-29T08:12:37;10.82;;;2.70;;
45065;SDS011;30830;53.704;10.004;2023-12-29T08:15:02;9.98;;;2.00;;
45065;SDS011;30830;53.704;10.004;2023-12-29T08:17:28;12.48;;;2.17;;
45065;SDS011;30830;53.704;10.004;2023-12-29T08:19:54;6.88;;;1.98;;
45065;SDS011;30830;53.704;10.004;2023-12-29T08:22:20;8.23;;;2.70;;
45065;SDS011;30830;53.704;10.004;2023-12-29T08:24:45;12.60;;;2.97;;
45065;SDS011;30830;53.704;10.004;2023-12-29T08:27:12;8.68;;;1.92;;
45065;SDS011;30830;53.704;10.004;2023-12-29T08:29:37;9.38;;;2.38;;
45065;SDS011;30830;53.704;10.004;2023-12-29T08:32:03;7.78;;;2.22;;
45065;SDS011;30830;53.704;10.004;2023-12-29T08:34:29;11.45;;;2.72;;
45065;SDS011;30830;53.704;10.004;2023-12-29T08:36:55;11.13;;;2.42;;
45065;SDS011;30830;53.704;10.004;2023-12-29T08:39:21;7.40;;;1.77;;
45065;SDS011;30830;53.704;10.004;2023-12-29T08:41:47;11.30;;;2.70;;
45065;SDS011;30830;53.704;10.004;2023-12-29T08:44:14;10.77;;;3.10;;
45065;SDS011;30830;53.704;10.004;2023-12-29T08:46:40;14.88;;;2.70;;
45065;SDS011;30830;53.704;10.004;2023-12-29T08:49:06;7.05;;;2.25;;
45065;SDS011;30830;53.704;10.004;2023-12-29T08:51:32;11.88;;;2.20;;
45065;SDS011;30830;53.704;10.004;2023-12-29T08:53:57;10.48;;;2.53;;
45065;SDS011;30830;53.704;10.004;2023-12-29T08:56:23;10.73;;;1.95;;
45065;SDS011;30830;53.704;10.004;2023-12-29T08:58:49;5.75;;;1.77;;
45065;SDS011;30830;53.704;10.004;2023-12-29T09:01:14;11.55;;;1.80;;
45065;SDS011;30830;53.704;10.004;2023-12-29T09:03:40;7.65;;;1.98;;
45065;SDS011;30830;53.704;10.004;2023-12-29T09:06:05;7.85;;;1.75;;
45065;SDS011;30830;53.704;10.004;2023-12-29T09:08:33;5.90;;;1.17;;
45065;SDS011;30830;53.704;10.004;2023-12-29T09:10:59;4.78;;;1.27;;
45065;SDS011;30830;53.704;10.004;2023-12-29T09:13:25;4.90;;;1.30;;
45065;SDS011;30830;53.704;10.004;2023-12-29T09:15:51;4.97;;;1.17;;
45065;SDS011;30830;53.704;10.004;2023-12-29T09:18:18;3.05;;;1.00;;
45065;SDS011;30830;53.704;10.004;2023-12-29T09:20:43;1.58;;;0.63;;
45065;SDS011;30830;53.704;10.004;2023-12-29T09:23:09;3.05;;;0.73;;
45065;SDS011;30830;53.704;10.004;2023-12-29T09:25:35;3.30;;;0.70;;
45065;SDS011;30830;53.704;10.004;2023-12-29T09:28:00;3.85;;;0.70;;
45065;SDS011;30830;53.704;10.004;2023-12-29T09:30:26;2.45;;;0.73;;
45065;SDS011;30830;53.704;10.004;2023-12-29T09:32:51;3.95;;;1.17;;
45065;SDS011;30830;53.704;10.004;2023-12-29T09:35:17;1.65;;;0.70;;
45065;SDS011;30830;53.704;10.004;2023-12-29T09:37:43;4.35;;;0.88;;
45065;SDS011;30830;53.704;10.004;2023-12-29T09:40:09;4.70;;;0.95;;
45065;SDS011;30830;53.704;10.004;2023-12-29T09:42:35;2.55;;;0.70;;
45065;SDS011;30830;53.704;10.004;2023-12-29T09:45:03;4.20;;;0.55;;
45065;SDS011;30830;53.704;10.004;2023-12-29T09:47:32;7.05;;;0.88;;
45065;SDS011;30830;53.704;10.004;2023-12-29T09:50:01;3.60;;;0.63;;
45065;SDS011;30830;53.704;10.004;2023-12-29T09:52:29;2.22;;;0.73;;
45065;SDS011;30830;53.704;10.004;2023-12-29T09:54:54;1.98;;;0.73;;
45065;SDS011;30830;53.704;10.004;2023-12-29T09:57:20;2.38;;;0.60;;
45065;SDS011;30830;53.704;10.004;2023-12-29T09:59:46;3.53;;;1.20;;
45065;SDS011;30830;53.704;10.004;2023-12-29T10:02:16;5.63;;;1.60;;
45065;SDS011;30830;53.704;10.004;2023-12-29T10:04:42;4.53;;;1.48;;
45065;SDS011;30830;53.704;10.004;2023-12-29T10:07:08;5.47;;;1.10;;
45065;SDS011;30830;53.704;10.004;2023-12-29T10:09:47;3.15;;;1.05;;
45065;SDS011;30830;53.704;10.004;2023-12-29T10:12:17;8.95;;;2.70;;
45065;SDS011;30830;53.704;10.004;2023-12-29T10:17:19;11.80;;;2.53;;
45065;SDS011;30830;53.704;10.004;2023-12-29T10:19:58;8.18;;;1.95;;
45065;SDS011;30830;53.704;10.004;2023-12-29T10:22:40;6.38;;;2.00;;
45065;SDS011;30830;53.704;10.004;2023-12-29T10:25:16;7.00;;;2.67;;
45065;SDS011;30830;53.704;10.004;2023-12-29T10:27:42;12.82;;;4.30;;
45065;SDS011;30830;53.704;10.004;2023-12-29T10:30:09;8.38;;;2.30;;
45065;SDS011;30830;53.704;10.004;2023-12-29T10:32:36;10.52;;;3.47;;
45065;SDS011;30830;53.704;10.004;2023-12-29T10:35:11;14.55;;;4.32;;
45065;SDS011;30830;53.704;10.004;2023-12-29T10:37:37;11.60;;;3.55;;
45065;SDS011;30830;53.704;10.004;2023-12-29T10:40:03;12.30;;;3.75;;
45065;SDS011;30830;53.704;10.004;2023-12-29T10:42:30;14.43;;;5.13;;
45065;SDS011;30830;53.704;10.004;2023-12-29T10:45:08;8.20;;;3.70;;
45065;SDS011;30830;53.704;10.004;2023-12-29T10:47:35;7.35;;;3.00;;
45065;SDS011;30830;53.704;10.004;2023-12-29T10:50:01;12.48;;;2.30;;
45065;SDS011;30830;53.704;10.004;2023-12-29T10:52:31;12.05;;;2.13;;
45065;SDS011;30830;53.704;10.004;2023-12-29T10:55:07;10.65;;;2.40;;
45065;SDS011;30830;53.704;10.004;2023-12-29T10:57:34;6.38;;;1.73;;
45065;SDS011;30830;53.704;10.004;2023-12-29T11:00:00;9.20;;;2.20;;
45065;SDS011;30830;53.704;10.004;2023-12-29T11:02:27;9.48;;;1.83;;
45065;SDS011;30830;53.704;10.004;2023-12-29T11:05:01;8.02;;;2.58;;
45065;SDS011;30830;53.704;10.004;2023-12-29T11:07:31;6.97;;;1.95;;
45065;SDS011;30830;53.704;10.004;2023-12-29T11:10:04;7.93;;;2.53;;
45065;SDS011;30830;53.704;10.004;2023-12-29T11:12:31;6.00;;;1.77;;
45065;SDS011;30830;53.704;10.004;2023-12-29T11:14:58;8.40;;;1.92;;
45065;SDS011;30830;53.704;10.004;2023-12-29T11:17:26;8.05;;;1.95;;
45065;SDS011;30830;53.704;10.004;2023-12-29T11:19:52;6.63;;;2.13;;
45065;SDS011;30830;53.704;10.004;2023-12-29T11:22:18;6.38;;;1.65;;
45065;SDS011;30830;53.704;10.004;2023-12-29T11:24:47;5.93;;;1.67;;
45065;SDS011;30830;53.704;10.004;2023-12-29T11:27:13;8.75;;;1.85;;
45065;SDS011;30830;53.704;10.004;2023-12-29T11:29:41;9.63;;;2.03;;
45065;SDS011;30830;53.704;10.004;2023-12-29T11:32:09;4.82;;;1.75;;
45065;SDS011;30830;53.704;10.004;2023-12-29T11:34:42;9.80;;;2.45;;
45065;SDS011;30830;53.704;10.004;2023-12-29T11:43:08;8.20;;;1.98;;
45065;SDS011;30830;53.704;10.004;2023-12-29T11:45:39;17.33;;;2.33;;
45065;SDS011;30830;53.704;10.004;2023-12-29T11:48:05;6.57;;;1.85;;
45065;SDS011;30830;53.704;10.004;2023-12-29T11:50:34;8.52;;;2.75;;
45065;SDS011;30830;53.704;10.004;2023-12-29T11:53:07;6.38;;;2.70;;
45065;SDS011;30830;53.704;10.004;2023-12-29T11:55:36;9.20;;;2.42;;
45065;SDS011;30830;53.704;10.004;2023-12-29T11:58:04;13.10;;;2.50;;
45065;SDS011;30830;53.704;10.004;2023-12-29T12:00:48;5.80;;;2.00;;
45065;SDS011;30830;53.704;10.004;2023-12-29T12:03:15;9.02;;;1.80;;
45065;SDS011;30830;53.704;10.004;2023-12-29T12:05:51;8.52;;;2.28;;
45065;SDS011;30830;53.704;10.004;2023-12-29T12:08:33;7.55;;;2.30;;
45065;SDS011;30830;53.704;10.004;2023-12-29T12:14:04;3.40;;;1.63;;
45065;SDS011;30830;53.704;10.004;2023-12-29T12:19:08;5.97;;;1.92;;
45065;SDS011;30830;53.704;10.004;2023-12-29T12:21:34;4.10;;;1.38;;
45065;SDS011;30830;53.704;10.004;2023-12-29T12:24:03;7.68;;;2.35;;
45065;SDS011;30830;53.704;10.004;2023-12-29T12:26:30;5.25;;;1.70;;
45065;SDS011;30830;53.704;10.004;2023-12-29T12:28:56;9.23;;;1.70;;
45065;SDS011;30830;53.704;10.004;2023-12-29T12:31:22;4.15;;;2.20;;
45065;SDS011;30830;53.704;10.004;2023-12-29T12:33:54;3.53;;;1.08;;
45065;SDS011;30830;53.704;10.004;2023-12-29T12:36:20;7.68;;;1.95;;
45065;SDS011;30830;53.704;10.004;2023-12-29T12:38:56;8.02;;;2.08;;
45065;SDS011;30830;53.704;10.004;2023-12-29T12:41:23;9.25;;;1.98;;
45065;SDS011;30830;53.704;10.004;2023-12-29T12:46:44;8.68;;;2.15;;
45065;SDS011;30830;53.704;10.004;2023-12-29T12:49:17;4.55;;;1.23;;
45065;SDS011;30830;53.704;10.004;2023-12-29T12:51:43;6.28;;;1.60;;
45065;SDS011;30830;53.704;10.004;2023-12-29T12:54:09;6.07;;;1.50;;
45065;SDS011;30830;53.704;10.004;2023-12-29T12:56:35;10.68;;;2.15;;
45065;SDS011;30830;53.704;10.004;2023-12-29T12:59:01;3.35;;;1.48;;
45065;SDS011;30830;53.704;10.004;2023-12-29T13:01:27;7.38;;;2.22;;
45065;SDS011;30830;53.704;10.004;2023-12-29T13:03:54;7.40;;;1.98;;
45065;SDS011;30830;53.704;10.004;2023-12-29T13:06:21;11.50;;;2.00;;
45065;SDS011;30830;53.704;10.004;2023-12-29T13:08:48;6.00;;;1.95;;
45065;SDS011;30830;53.704;10.004;2023-12-29T13:11:19;9.18;;;1.48;;
45065;SDS011;30830;53.704;10.004;2023-12-29T13:13:50;6.05;;;1.73;;
45065;SDS011;30830;53.704;10.004;2023-12-29T13:16:31;4.50;;;1.48;;
45065;SDS011;30830;53.704;10.004;2023-12-29T13:21:45;4.50;;;1.02;;
45065;SDS011;30830;53.704;10.004;2023-12-29T13:24:21;4.07;;;1.60;;
45065;SDS011;30830;53.704;10.004;2023-12-29T13:26:47;9.55;;;2.10;;
45065;SDS011;30830;53.704;10.004;2023-12-29T13:29:17;6.22;;;1.40;;
45065;SDS011;30830;53.704;10.004;2023-12-29T13:31:46;10.40;;;2.10;;
45065;SDS011;30830;53.704;10.004;2023-12-29T13:34:15;6.95;;;1.80;;
45065;SDS011;30830;53.704;10.004;2023-12-29T13:36:54;5.43;;;1.88;;
45065;SDS011;30830;53.704;10.004;2023-12-29T13:39:53;3.40;;;1.08;;
45065;SDS011;30830;53.704;10.004;2023-12-29T13:42:28;6.70;;;1.88;;
45065;SDS011;30830;53.704;10.004;2023-12-29T13:44:56;9.60;;;1.98;;
45065;SDS011;30830;53.704;10.004;2023-12-29T13:47:24;6.15;;;1.65;;
45065;SDS011;30830;53.704;10.004;2023-12-29T13:49:50;6.05;;;1.52;;
45065;SDS011;30830;53.704;10.004;2023-12-29T13:52:16;6.50;;;1.55;;
45065;SDS011;30830;53.704;10.004;2023-12-29T13:54:44;5.47;;;1.17;;
45065;SDS011;30830;53.704;10.004;2023-12-29T13:57:09;7.50;;;1.75;;
45065;SDS011;30830;53.704;10.004;2023-12-29T13:59:35;9.00;;;1.70;;
45065;SDS011;30830;53.704;10.004;2023-12-29T14:10:48;5.45;;;1.65;;
45065;SDS011;30830;53.704;10.004;2023-12-29T14:13:14;9.32;;;1.77;;
45065;SDS011;30830;53.704;10.004;2023-12-29T14:15:44;8.88;;;2.33;;
45065;SDS011;30830;53.704;10.004;2023-12-29T14:24:01;9.57;;;1.63;;
45065;SDS011;30830;53.704;10.004;2023-12-29T14:29:09;7.13;;;2.03;;
45065;SDS011;30830;53.704;10.004;2023-12-29T14:31:36;8.63;;;1.33;;
45065;SDS011;30830;53.704;10.004;2023-12-29T14:34:06;8.00;;;2.15;;
45065;SDS011;30830;53.704;10.004;2023-12-29T14:36:33;7.72;;;1.52;;
45065;SDS011;30830;53.704;10.004;2023-12-29T14:38:59;4.10;;;1.52;;
45065;SDS011;30830;53.704;10.004;2023-12-29T14:41:25;7.47;;;1.63;;
45065;SDS011;30830;53.704;10.004;2023-12-29T14:43:51;9.05;;;2.20;;
45065;SDS011;30830;53.704;10.004;2023-12-29T14:46:18;9.23;;;2.38;;
45065;SDS011;30830;53.704;10.004;2023-12-29T14:48:43;4.88;;;1.42;;
45065;SDS011;30830;53.704;10.004;2023-12-29T14:51:09;9.13;;;2.78;;
45065;SDS011;30830;53.704;10.004;2023-12-29T14:53:35;8.38;;;2.78;;
45065;SDS011;30830;53.704;10.004;2023-12-29T14:56:02;18.60;;;7.25;;
45065;SDS011;30830;53.704;10.004;2023-12-29T14:58:27;15.50;;;7.55;;
45065;SDS011;30830;53.704;10.004;2023-12-29T15:00:53;21.23;;;9.95;;
45065;SDS011;30830;53.704;10.004;2023-12-29T15:03:19;6.07;;;2.60;;
45065;SDS011;30830;53.704;10.004;2023-12-29T15:05:46;12.98;;;4.60;;
45065;SDS011;30830;53.704;10.004;2023-12-29T15:08:12;13.57;;;5.38;;
45065;SDS011;30830;53.704;10.004;2023-12-29T15:10:38;12.68;;;4.80;;
45065;SDS011;30830;53.704;10.004;2023-12-29T15:13:03;9.85;;;3.33;;
45065;SDS011;30830;53.704;10.004;2023-12-29T15:15:32;8.95;;;3.78;;